Terminal Aerodrome Forecast
Issued by NWS

Home | Current Version | Previous Version | Text Only | Print | Product List | Glossary On
Versions: 1 2 3 4 5 6 7 8 9 10 11 12 13 14 15 16 17 18 19 20 21 22 23 24 25
679
FTUS41 KBGM 280343 AAC
TAFELM
TAF AMD
KELM 280343Z 2804/2824 VRB06KT P6SM SCT050 BKN100
      TEMPO 2804/2806 -SHRA OVC035
     FM280600 29006KT P6SM BKN025
     FM281000 28006KT P6SM SCT025 BKN040
     FM281500 27006KT P6SM SCT050=

USA.gov is the U.S. government's official web portal to all federal, state and local government web resources and services.